Time;durP1;ratioP1;P1;durP2;ratioP2;P2;SDS_P1;SDS_P2;PMS_P1;PMS_P2;Temp;Humidity;BMP_temperature;BMP_pressure;BME280_temperature;BME280_humidity;BME280_pressure;Samples;Min_cycle;Max_cycle;Signal;HPM_P1;HPM_P2
2022/07/02 05:00:40;;;;;;;6.20;5.33;;;16.50;97.20;;;;;;1727621;28;20215;-67
2022/07/02 05:01:30;;;;;;;6.18;5.60;;;16.50;97.20;;;;;;1727275;28;20238;-67
2022/07/02 05:02:23;;;;;;;8.27;6.43;;;16.50;97.20;;;;;;1726942;28;20309;-67
2022/07/02 05:03:14;;;;;;;6.38;5.78;;;16.50;97.20;;;;;;1727541;28;20235;-67
2022/07/02 05:04:06;;;;;;;6.50;6.00;;;16.50;97.20;;;;;;1727392;28;20232;-67
2022/07/02 05:04:57;;;;;;;5.97;5.47;;;16.60;97.20;;;;;;1727408;28;20655;-67
2022/07/02 05:05:49;;;;;;;6.43;5.83;;;16.60;97.20;;;;;;1727362;28;20624;-67
2022/07/02 05:06:40;;;;;;;6.47;5.75;;;16.60;97.20;;;;;;1727134;28;20201;-67
2022/07/02 05:07:31;;;;;;;7.00;6.13;;;16.60;97.20;;;;;;1727369;28;20271;-67
2022/07/02 05:08:26;;;;;;;6.95;6.35;;;16.60;97.20;;;;;;1727279;28;20228;-67
2022/07/02 05:09:18;;;;;;;6.72;6.25;;;16.60;97.20;;;;;;1727352;28;20204;-67
2022/07/02 05:10:08;;;;;;;6.15;5.65;;;16.60;97.20;;;;;;1727381;28;20418;-67
2022/07/02 05:11:00;;;;;;;7.27;6.20;;;16.60;97.20;;;;;;1727444;28;20319;-67
2022/07/02 05:11:51;;;;;;;6.82;6.22;;;16.60;97.20;;;;;;1727344;28;20435;-67
2022/07/02 05:12:43;;;;;;;6.80;6.27;;;16.60;97.20;;;;;;1727360;28;20197;-67
2022/07/02 05:13:33;;;;;;;5.93;5.53;;;16.60;97.20;;;;;;1727373;28;20447;-67
2022/07/02 05:14:25;;;;;;;6.70;6.10;;;16.70;97.20;;;;;;1727244;28;20327;-67
2022/07/02 05:15:16;;;;;;;6.20;5.70;;;16.70;97.20;;;;;;1727356;28;20208;-67
2022/07/02 05:16:09;;;;;;;6.30;5.80;;;16.70;97.20;;;;;;1727349;28;20232;-67
2022/07/02 05:17:00;;;;;;;5.95;5.35;;;16.70;97.20;;;;;;1726808;28;20447;-67
2022/07/02 05:17:52;;;;;;;5.67;5.17;;;16.70;97.20;;;;;;1727179;28;20291;-67
2022/07/02 05:18:42;;;;;;;6.57;6.07;;;16.70;97.20;;;;;;1727364;28;20601;-67
2022/07/02 05:19:34;;;;;;;6.63;6.13;;;16.70;97.20;;;;;;1727322;28;20283;-67
2022/07/02 05:20:25;;;;;;;6.45;5.95;;;16.70;97.20;;;;;;1727254;28;20204;-67
2022/07/02 05:21:16;;;;;;;7.20;6.60;;;16.70;97.20;;;;;;1727419;28;20283;-67
2022/07/02 05:22:07;;;;;;;6.75;6.15;;;16.70;97.20;;;;;;1727304;28;20656;-67
2022/07/02 05:22:59;;;;;;;6.73;6.13;;;16.70;97.20;;;;;;1727442;28;20599;-67
2022/07/02 05:23:50;;;;;;;6.07;5.57;;;16.70;97.20;;;;;;1727291;28;20204;-67
2022/07/02 05:24:41;;;;;;;6.30;5.80;;;16.70;97.20;;;;;;1727210;28;20192;-67
2022/07/02 05:25:32;;;;;;;6.50;5.75;;;16.80;97.20;;;;;;1727192;28;20211;-67
2022/07/02 05:26:24;;;;;;;7.00;6.40;;;16.80;97.20;;;;;;1727285;28;20283;-67
2022/07/02 05:27:15;;;;;;;5.70;5.30;;;16.80;97.20;;;;;;1726967;28;20534;-67
2022/07/02 05:28:07;;;;;;;6.87;6.23;;;16.80;97.20;;;;;;1723949;28;20217;-67
2022/07/02 05:28:58;;;;;;;7.30;6.65;;;16.80;97.20;;;;;;1724238;28;20446;-68
2022/07/02 05:29:50;;;;;;;7.03;6.37;;;16.80;97.20;;;;;;1727352;28;20224;-67
2022/07/02 05:30:41;;;;;;;7.90;5.95;;;16.80;97.20;;;;;;1727318;28;20200;-67
2022/07/02 05:31:34;;;;;;;7.33;6.47;;;16.80;97.20;;;;;;1727319;28;20279;-67
2022/07/02 05:32:24;;;;;;;7.13;6.53;;;16.80;97.20;;;;;;1727357;28;20209;-67
2022/07/02 05:33:16;;;;;;;7.50;6.90;;;16.80;97.20;;;;;;1726845;28;20687;-67
2022/07/02 05:34:07;;;;;;;7.07;6.55;;;16.80;97.20;;;;;;1727250;28;20578;-69
2022/07/02 05:34:59;;;;;;;6.37;5.80;;;16.80;97.20;;;;;;1726872;28;20234;-67
2022/07/02 05:35:49;;;;;;;7.63;6.93;;;16.80;97.20;;;;;;1727233;28;20211;-67
2022/07/02 05:36:41;;;;;;;6.90;6.40;;;16.80;97.20;;;;;;1727056;28;20224;-67
2022/07/02 05:37:32;;;;;;;7.03;6.53;;;16.80;97.20;;;;;;1727376;28;20207;-67
2022/07/02 05:38:24;;;;;;;7.73;6.60;;;16.80;97.20;;;;;;1756220;22;20329;-71
2022/07/02 05:39:14;;;;;;;6.75;6.05;;;16.80;97.20;;;;;;1740996;28;20210;-71
2022/07/02 05:40:07;;;;;;;9.23;6.30;;;16.80;97.20;;;;;;1741250;28;20291;-70
2022/07/02 05:40:58;;;;;;;6.30;5.80;;;16.80;97.20;;;;;;1741157;28;20203;-69
2022/07/02 05:41:49;;;;;;;7.43;6.60;;;16.80;97.20;;;;;;1740944;28;20662;-71
2022/07/02 05:42:40;;;;;;;5.70;5.30;;;16.90;97.20;;;;;;1740922;28;20199;-71
2022/07/02 05:43:32;;;;;;;6.47;5.97;;;16.90;97.20;;;;;;1741154;28;20270;-70
2022/07/02 05:44:23;;;;;;;7.18;6.47;;;16.90;97.20;;;;;;1740994;28;20450;-70
2022/07/02 05:45:15;;;;;;;6.60;6.10;;;17.00;97.20;;;;;;1740974;28;20282;-67
2022/07/02 05:46:06;;;;;;;6.38;5.88;;;17.00;97.20;;;;;;1740894;28;20290;-68
2022/07/02 05:46:59;;;;;;;6.27;5.77;;;17.00;97.20;;;;;;1736301;28;20207;-67
2022/07/02 05:47:49;;;;;;;5.65;5.25;;;17.00;97.20;;;;;;1740822;28;20907;-68
2022/07/02 05:48:41;;;;;;;6.87;6.30;;;17.00;97.20;;;;;;1737578;28;20744;-68
2022/07/02 05:49:32;;;;;;;6.65;6.05;;;17.00;97.20;;;;;;1734152;28;20667;-67
2022/07/02 05:50:24;;;;;;;6.60;6.10;;;17.00;97.20;;;;;;1733764;28;20543;-70
2022/07/02 05:51:16;;;;;;;7.03;6.47;;;17.10;97.20;;;;;;1733654;28;20207;-68
2022/07/02 05:52:08;;;;;;;6.32;5.80;;;17.10;97.20;;;;;;1734138;28;20576;-68
2022/07/02 05:52:58;;;;;;;6.03;5.50;;;17.10;97.20;;;;;;1734571;28;20323;-68
2022/07/02 05:53:50;;;;;;;6.17;5.60;;;17.10;97.20;;;;;;1735466;28;20203;-68
2022/07/02 05:54:41;;;;;;;5.53;5.03;;;17.10;97.20;;;;;;1735267;28;20232;-70
2022/07/02 05:55:33;;;;;;;5.00;4.60;;;17.10;97.20;;;;;;1735349;28;20196;-68
2022/07/02 05:56:24;;;;;;;5.90;5.40;;;17.10;97.20;;;;;;1735241;28;20215;-68
2022/07/02 05:57:15;;;;;;;5.90;5.40;;;17.10;97.20;;;;;;1735104;28;20659;-68
2022/07/02 05:58:07;;;;;;;6.70;5.68;;;17.10;97.20;;;;;;1735188;28;20211;-68
2022/07/02 05:58:59;;;;;;;5.28;4.95;;;17.10;97.20;;;;;;1735425;28;20192;-69
2022/07/02 05:59:50;;;;;;;5.30;4.78;;;17.10;97.20;;;;;;1735348;28;20203;-69
2022/07/02 06:00:41;;;;;;;5.13;4.73;;;17.20;97.20;;;;;;1735327;28;20200;-67
2022/07/02 06:01:32;;;;;;;5.55;5.15;;;17.20;97.20;;;;;;1735286;28;20215;-68
2022/07/02 06:02:25;;;;;;;6.82;5.18;;;17.20;97.20;;;;;;1735301;28;20206;-68
2022/07/02 06:03:16;;;;;;;6.10;5.43;;;17.20;97.20;;;;;;1735308;28;20207;-68
2022/07/02 06:04:08;;;;;;;5.47;4.97;;;17.20;97.20;;;;;;1735272;28;20199;-67
2022/07/02 06:04:59;;;;;;;5.80;5.30;;;17.20;97.20;;;;;;1735266;28;20579;-68
2022/07/02 06:08:29;;;;;;;4.57;4.20;;;17.30;97.20;;;;;;1734929;28;20230;-68
2022/07/02 06:09:19;;;;;;;4.82;4.40;;;17.30;97.20;;;;;;1736626;28;20262;-69
2022/07/02 06:10:17;;;;;;;5.70;4.43;;;17.30;97.20;;;;;;1736777;28;20203;-68
2022/07/02 06:11:10;;;;;;;4.70;4.20;;;17.30;97.20;;;;;;1734530;28;20203;-68
2022/07/02 06:12:02;;;;;;;4.80;4.40;;;17.40;97.20;;;;;;1735265;28;20253;-67
2022/07/02 06:12:53;;;;;;;4.80;4.30;;;17.40;97.20;;;;;;1735224;28;20196;-67
2022/07/02 06:13:44;;;;;;;4.30;3.90;;;17.40;97.20;;;;;;1735195;28;20254;-68
2022/07/02 06:14:36;;;;;;;4.43;4.10;;;17.50;97.20;;;;;;1735158;28;20338;-68
2022/07/02 06:15:27;;;;;;;5.57;4.53;;;17.50;97.20;;;;;;1735147;28;20196;-68
2022/07/02 06:16:19;;;;;;;5.15;4.75;;;17.50;97.20;;;;;;1735202;28;20223;-68
2022/07/02 06:17:10;;;;;;;5.10;4.60;;;17.60;97.20;;;;;;1734942;28;20214;-68
2022/07/02 06:18:03;;;;;;;5.40;4.90;;;17.60;97.20;;;;;;1735096;28;20667;-68
2022/07/02 06:18:54;;;;;;;4.85;4.50;;;17.60;97.20;;;;;;1735246;28;20200;-68
2022/07/02 06:19:48;;;;;;;5.40;4.50;;;17.70;97.20;;;;;;1735182;28;20283;-68
2022/07/02 06:20:39;;;;;;;5.53;4.10;;;17.70;97.20;;;;;;1735187;28;20242;-69
2022/07/02 06:21:31;;;;;;;6.50;5.00;;;17.80;97.20;;;;;;1735185;28;20298;-68
2022/07/02 06:22:22;;;;;;;4.50;4.20;;;17.80;97.20;;;;;;1735225;28;20453;-70
2022/07/02 06:23:14;;;;;;;6.07;5.67;;;17.90;97.20;;;;;;1735228;28;20195;-68
2022/07/02 06:24:05;;;;;;;4.60;4.20;;;17.90;97.20;;;;;;1735773;28;20224;-68
2022/07/02 06:24:57;;;;;;;4.45;4.05;;;17.90;97.20;;;;;;1735266;28;20207;-66
2022/07/02 06:25:47;;;;;;;5.60;4.13;;;17.90;97.20;;;;;;1735102;28;20199;-67
2022/07/02 06:26:39;;;;;;;4.70;4.27;;;18.00;97.20;;;;;;1735080;28;20230;-67
2022/07/02 06:27:33;;;;;;;6.50;4.63;;;18.00;97.20;;;;;;1735467;28;20451;-67
2022/07/02 06:28:25;;;;;;;4.60;4.22;;;18.00;97.20;;;;;;1735166;28;20349;-67
2022/07/02 06:29:15;;;;;;;6.68;4.72;;;18.00;97.20;;;;;;1735360;28;20214;-67
2022/07/02 06:30:09;;;;;;;4.53;4.23;;;18.10;97.20;;;;;;1735542;28;20298;-68
2022/07/02 06:30:59;;;;;;;5.00;4.22;;;18.10;97.20;;;;;;1735410;28;20200;-67
2022/07/02 06:31:51;;;;;;;5.93;4.60;;;18.10;97.20;;;;;;1735449;28;20227;-69
2022/07/02 06:32:42;;;;;;;4.25;3.85;;;18.20;97.20;;;;;;1735323;28;20208;-67
2022/07/02 06:33:35;;;;;;;5.27;4.37;;;18.20;97.20;;;;;;1735135;28;20228;-67
2022/07/02 06:34:26;;;;;;;5.47;4.22;;;18.20;97.20;;;;;;1735101;28;20926;-67
2022/07/02 06:35:18;;;;;;;5.07;4.57;;;18.30;97.20;;;;;;1735106;28;20566;-67
2022/07/02 06:36:14;;;;;;;5.05;4.57;;;18.30;97.20;;;;;;1735018;28;20341;-68
2022/07/02 06:37:06;;;;;;;5.00;4.60;;;18.30;97.20;;;;;;1734872;28;20262;-68
2022/07/02 06:37:56;;;;;;;5.88;4.32;;;18.40;97.20;;;;;;1735091;28;20203;-69
2022/07/02 06:38:49;;;;;;;6.07;5.03;;;18.40;97.20;;;;;;1734862;28;20311;-67
2022/07/02 06:39:39;;;;;;;5.15;4.72;;;18.40;97.20;;;;;;1735239;28;20730;-67
2022/07/02 06:40:31;;;;;;;6.77;4.70;;;18.40;97.20;;;;;;1735094;28;20624;-67
2022/07/02 06:42:31;;;;;;;4.72;4.15;;;18.50;97.20;;;;;;1735226;28;20674;-67
2022/07/02 06:43:24;;;;;;;5.50;4.20;;;18.50;97.20;;;;;;1735109;28;20691;-67
2022/07/02 06:44:14;;;;;;;4.25;3.85;;;18.50;97.20;;;;;;1735150;28;20212;-67
2022/07/02 06:45:07;;;;;;;5.00;4.43;;;18.60;97.20;;;;;;1735148;28;20289;-67
2022/07/02 06:45:57;;;;;;;4.10;3.75;;;18.60;97.20;;;;;;1735142;28;20203;-67
2022/07/02 06:46:49;;;;;;;5.53;4.30;;;18.60;97.20;;;;;;1734804;28;20200;-67
2022/07/02 06:47:41;;;;;;;5.50;4.20;;;18.70;97.20;;;;;;1735060;28;20211;-67
2022/07/02 06:48:34;;;;;;;4.70;4.30;;;18.70;97.20;;;;;;1735006;28;20309;-66
2022/07/02 06:49:25;;;;;;;5.07;4.40;;;18.70;97.20;;;;;;1735028;28;20203;-68
2022/07/02 06:50:18;;;;;;;4.50;4.10;;;18.70;97.20;;;;;;1734859;28;20223;-67
2022/07/02 06:51:09;;;;;;;4.25;3.58;;;18.70;97.20;;;;;;1735033;28;20208;-67
2022/07/02 06:52:00;;;;;;;4.00;3.70;;;18.70;97.20;;;;;;1735075;28;20207;-68
2022/07/02 06:52:52;;;;;;;4.43;4.05;;;18.70;97.20;;;;;;1735075;28;20204;-68
2022/07/02 06:53:43;;;;;;;3.70;3.40;;;18.80;97.20;;;;;;1734992;28;20219;-69
2022/07/02 06:54:35;;;;;;;3.80;3.50;;;18.80;97.20;;;;;;1735000;28;20283;-68
2022/07/02 06:55:25;;;;;;;7.57;3.33;;;18.80;97.20;;;;;;1734880;28;20224;-67
2022/07/02 06:56:17;;;;;;;3.80;3.40;;;18.80;97.20;;;;;;1734941;28;20219;-67
2022/07/02 06:57:09;;;;;;;4.07;3.25;;;18.80;97.20;;;;;;1734451;28;20204;-67
2022/07/02 06:58:00;;;;;;;3.85;3.47;;;18.80;97.20;;;;;;1734534;28;20222;-67
2022/07/02 06:58:51;;;;;;;4.00;3.60;;;18.90;97.20;;;;;;1734912;28;20211;-68
2022/07/02 06:59:43;;;;;;;3.83;3.50;;;18.90;97.20;;;;;;1734944;28;20295;-67
2022/07/02 07:00:34;;;;;;;4.25;3.08;;;18.90;97.20;;;;;;1734941;28;20199;-67
2022/07/02 07:01:25;;;;;;;5.50;2.70;;;18.90;97.20;;;;;;1734914;28;20206;-67
2022/07/02 07:02:16;;;;;;;2.83;2.63;;;18.90;97.20;;;;;;1734608;28;20497;-67
2022/07/02 07:03:08;;;;;;;4.33;3.37;;;18.90;97.20;;;;;;1734576;28;20200;-67
2022/07/02 07:04:01;;;;;;;3.80;3.50;;;19.00;97.20;;;;;;1733005;28;20446;-68
2022/07/02 07:04:52;;;;;;;4.60;4.20;;;19.00;97.20;;;;;;1732358;28;20679;-69
2022/07/02 07:05:46;;;;;;;4.05;3.63;;;19.00;97.20;;;;;;1732762;28;20210;-67
2022/07/02 07:06:38;;;;;;;3.90;3.50;;;19.00;97.20;;;;;;1732373;28;20609;-68
2022/07/02 07:07:30;;;;;;;5.50;3.75;;;19.10;97.20;;;;;;1732518;28;20196;-67
2022/07/02 07:08:22;;;;;;;4.38;2.60;;;19.10;97.20;;;;;;1733740;28;20212;-67
2022/07/02 07:09:13;;;;;;;2.72;2.53;;;19.10;97.20;;;;;;1734842;28;20269;-67
2022/07/02 07:10:05;;;;;;;3.43;2.90;;;19.10;97.20;;;;;;1736981;28;20199;-67
2022/07/02 07:10:56;;;;;;;2.60;2.40;;;19.10;97.20;;;;;;1741796;28;20214;-67
2022/07/02 07:11:48;;;;;;;3.20;2.40;;;19.10;97.20;;;;;;1741758;28;20274;-67
2022/07/02 07:12:38;;;;;;;2.10;2.00;;;19.10;97.20;;;;;;1740854;28;20218;-66
2022/07/02 07:13:30;;;;;;;2.00;1.90;;;19.10;97.20;;;;;;1732544;28;20192;-67
2022/07/02 07:14:21;;;;;;;3.42;1.70;;;19.10;97.20;;;;;;1732662;28;20200;-66
2022/07/02 07:15:13;;;;;;;2.15;1.95;;;19.20;97.20;;;;;;1732528;28;20642;-68
2022/07/02 07:16:05;;;;;;;7.35;2.30;;;19.20;97.20;;;;;;1732103;28;20192;-69
2022/07/02 07:16:56;;;;;;;2.20;2.00;;;19.20;97.20;;;;;;1732350;28;20207;-67
2022/07/02 07:17:47;;;;;;;1.95;1.75;;;19.20;97.20;;;;;;1732449;28;20223;-67
2022/07/02 07:18:39;;;;;;;3.50;2.17;;;19.20;97.20;;;;;;1732037;28;20291;-68
2022/07/02 07:19:31;;;;;;;2.67;2.47;;;19.20;97.20;;;;;;1732452;28;20195;-68
2022/07/02 07:20:27;;;;;;;2.60;2.40;;;19.20;97.20;;;;;;1736387;28;20196;-68
2022/07/02 07:21:17;;;;;;;3.30;2.33;;;19.30;97.20;;;;;;1733647;28;20237;-68
2022/07/02 07:22:10;;;;;;;3.57;2.10;;;19.30;97.20;;;;;;1732542;28;20324;-67
2022/07/02 07:23:00;;;;;;;1.85;1.75;;;19.30;97.20;;;;;;1732517;28;20286;-68
2022/07/02 07:23:52;;;;;;;3.70;2.23;;;19.30;97.20;;;;;;1732167;28;20200;-68
2022/07/02 07:24:43;;;;;;;2.15;2.05;;;19.40;97.20;;;;;;1732346;28;20203;-69
2022/07/02 07:25:34;;;;;;;2.33;1.97;;;19.40;97.20;;;;;;1732449;28;20275;-67
2022/07/02 07:26:25;;;;;;;5.40;1.80;;;19.40;97.20;;;;;;1732090;28;20208;-67
2022/07/02 07:27:20;;;;;;;1.65;1.55;;;19.50;97.20;;;;;;1731978;28;20191;-68
2022/07/02 07:28:11;;;;;;;1.70;1.42;;;19.50;97.20;;;;;;1732209;28;20208;-67
2022/07/02 07:29:05;;;;;;;1.77;1.57;;;19.50;97.20;;;;;;1732095;28;20199;-68
2022/07/02 07:29:56;;;;;;;1.42;1.33;;;19.60;97.20;;;;;;1732278;28;20886;-69
2022/07/02 07:30:48;;;;;;;2.00;1.50;;;19.60;97.20;;;;;;1733043;28;20532;-68
2022/07/02 07:31:39;;;;;;;1.90;1.80;;;19.70;97.20;;;;;;1732321;28;20215;-69
2022/07/02 07:32:31;;;;;;;1.73;1.63;;;19.70;97.20;;;;;;1732131;28;20709;-69
2022/07/02 07:33:22;;;;;;;2.10;1.88;;;19.70;97.20;;;;;;1732235;28;20685;-69
2022/07/02 07:34:14;;;;;;;3.38;3.10;;;19.80;97.20;;;;;;1732243;28;20191;-70
2022/07/02 07:35:07;;;;;;;3.28;1.77;;;19.80;97.20;;;;;;1732850;28;20207;-68
2022/07/02 07:36:00;;;;;;;3.60;1.42;;;19.80;97.20;;;;;;1732029;28;20615;-70
2022/07/02 07:36:52;;;;;;;2.22;1.50;;;19.80;97.20;;;;;;1731933;28;20227;-69
2022/07/02 07:37:57;;;;;;;1.80;1.67;;;19.90;97.20;;;;;;1732119;28;20206;-68
2022/07/02 07:38:49;;;;;;;1.70;1.60;;;19.90;97.20;;;;;;1732000;28;20434;-69
2022/07/02 07:39:41;;;;;;;2.22;1.70;;;19.90;97.20;;;;;;1732069;28;20196;-69
2022/07/02 07:40:31;;;;;;;2.13;1.45;;;19.90;97.20;;;;;;1732075;28;20601;-69
2022/07/02 07:41:24;;;;;;;1.40;1.30;;;20.00;97.20;;;;;;1732649;28;20332;-68
2022/07/02 07:42:15;;;;;;;1.63;1.52;;;20.00;97.20;;;;;;1732172;28;20207;-69
2022/07/02 07:43:06;;;;;;;2.13;1.30;;;20.00;97.20;;;;;;1732366;28;20196;-69
2022/07/02 07:43:57;;;;;;;1.70;1.35;;;20.00;97.20;;;;;;1732217;28;20683;-69
2022/07/02 07:44:49;;;;;;;1.70;1.40;;;20.10;97.20;;;;;;1732970;28;20601;-68
2022/07/02 07:45:40;;;;;;;2.88;1.40;;;20.10;97.20;;;;;;1732433;28;20203;-67
2022/07/02 07:46:32;;;;;;;3.30;1.67;;;20.10;97.20;;;;;;1732354;28;20283;-69
2022/07/02 07:47:22;;;;;;;1.88;1.40;;;20.20;97.20;;;;;;1732083;28;20200;-68
2022/07/02 07:48:14;;;;;;;3.40;1.70;;;20.20;97.20;;;;;;1732217;28;20198;-68
2022/07/02 07:49:05;;;;;;;1.52;1.00;;;20.30;97.20;;;;;;1732304;28;20570;-70
2022/07/02 07:49:57;;;;;;;1.40;1.10;;;20.30;97.20;;;;;;1732457;28;20630;-69
2022/07/02 07:50:49;;;;;;;2.22;1.50;;;20.30;97.20;;;;;;1732103;28;20203;-68
2022/07/02 07:51:41;;;;;;;1.55;1.30;;;20.30;97.20;;;;;;1732721;28;20204;-68
2022/07/02 07:52:31;;;;;;;1.58;1.40;;;20.40;97.20;;;;;;1732296;28;20204;-68
2022/07/02 07:53:23;;;;;;;1.20;1.00;;;20.40;97.20;;;;;;1732937;28;20298;-68
2022/07/02 07:54:14;;;;;;;2.85;1.15;;;20.40;97.20;;;;;;1732138;28;20959;-68
2022/07/02 07:55:07;;;;;;;1.40;1.30;;;20.50;97.20;;;;;;1732330;28;20593;-67
2022/07/02 07:55:58;;;;;;;1.45;1.35;;;20.50;97.20;;;;;;1731815;28;20238;-68
2022/07/02 07:56:49;;;;;;;1.40;1.30;;;20.50;97.20;;;;;;1732073;28;20200;-68
2022/07/02 07:57:40;;;;;;;1.15;1.02;;;20.50;97.20;;;;;;1733386;28;20199;-68
2022/07/02 07:58:35;;;;;;;1.80;1.30;;;20.50;97.20;;;;;;1732782;28;20324;-67
2022/07/02 07:59:25;;;;;;;2.50;1.48;;;20.60;97.20;;;;;;1732320;28;20946;-67
2022/07/02 08:00:18;;;;;;;1.73;1.10;;;20.60;97.20;;;;;;1732300;28;20218;-67
2022/07/02 08:01:08;;;;;;;1.20;1.10;;;20.60;97.20;;;;;;1732077;28;20208;-67
2022/07/02 08:02:00;;;;;;;1.37;1.27;;;20.70;97.20;;;;;;1730346;28;20727;-69
2022/07/02 08:02:51;;;;;;;1.27;1.10;;;20.70;97.20;;;;;;1731991;28;20205;-68
2022/07/02 08:03:44;;;;;;;2.00;1.10;;;20.80;97.20;;;;;;1731970;28;20275;-67
2022/07/02 08:04:35;;;;;;;2.30;0.95;;;20.80;97.20;;;;;;1731554;28;20708;-68
2022/07/02 08:05:27;;;;;;;1.80;1.20;;;20.80;97.20;;;;;;1732261;28;20192;-68
2022/07/02 08:06:19;;;;;;;1.70;1.08;;;20.80;97.20;;;;;;1731882;28;20211;-68
2022/07/02 08:07:10;;;;;;;3.97;1.02;;;20.90;97.20;;;;;;1731073;28;20208;-69
2022/07/02 08:08:02;;;;;;;1.77;1.35;;;20.90;97.20;;;;;;1731232;28;20200;-67
2022/07/02 08:08:54;;;;;;;1.30;1.10;;;20.90;97.20;;;;;;1731962;28;20203;-67
2022/07/02 08:09:46;;;;;;;1.75;1.20;;;21.00;97.20;;;;;;1731956;28;20596;-67
2022/07/02 08:10:37;;;;;;;1.40;1.30;;;21.00;97.20;;;;;;1732247;28;20215;-67
2022/07/02 08:11:28;;;;;;;1.15;0.93;;;21.00;97.20;;;;;;1731890;28;20215;-69
2022/07/02 08:12:20;;;;;;;2.67;1.20;;;21.00;97.20;;;;;;1732694;28;20271;-67
2022/07/02 08:13:11;;;;;;;1.83;1.30;;;21.10;97.20;;;;;;1730864;28;20844;-67
2022/07/02 08:14:04;;;;;;;1.33;1.07;;;21.00;97.20;;;;;;1731460;28;20310;-69
2022/07/02 08:14:55;;;;;;;1.42;1.33;;;21.00;97.20;;;;;;1732085;28;20702;-68
2022/07/02 08:15:47;;;;;;;2.20;1.23;;;21.00;97.20;;;;;;1731142;28;20707;-68
2022/07/02 08:16:38;;;;;;;1.65;1.00;;;21.00;97.20;;;;;;1731631;28;20963;-68
2022/07/02 08:17:30;;;;;;;1.30;0.95;;;21.00;97.20;;;;;;1731897;28;20254;-68
2022/07/02 08:18:20;;;;;;;2.50;1.33;;;21.00;97.20;;;;;;1731999;28;20358;-67
2022/07/02 08:19:12;;;;;;;1.67;1.07;;;21.10;97.20;;;;;;1731889;28;20250;-69
2022/07/02 08:20:05;;;;;;;1.95;1.20;;;21.10;97.20;;;;;;1731899;28;20204;-68
2022/07/02 08:20:57;;;;;;;1.30;0.98;;;21.10;97.20;;;;;;1732278;28;20822;-68
2022/07/02 08:21:49;;;;;;;5.43;1.50;;;21.10;97.20;;;;;;1732615;28;20219;-67
2022/07/02 08:22:42;;;;;;;2.10;1.30;;;21.10;97.20;;;;;;1732127;28;20199;-67
2022/07/02 08:23:33;;;;;;;2.47;1.00;;;21.10;97.20;;;;;;1732126;28;20207;-68
2022/07/02 08:24:25;;;;;;;1.30;1.17;;;21.20;97.20;;;;;;1732080;28;20293;-68
2022/07/02 08:25:15;;;;;;;2.95;1.20;;;21.20;97.20;;;;;;1732006;28;20208;-68
2022/07/02 08:26:07;;;;;;;1.30;1.10;;;21.20;97.20;;;;;;1732104;28;20674;-68
2022/07/02 08:26:58;;;;;;;2.58;1.67;;;21.20;97.20;;;;;;1731772;28;20199;-69
2022/07/02 08:27:50;;;;;;;1.67;1.30;;;21.20;97.20;;;;;;1732034;28;20295;-67
2022/07/02 08:28:40;;;;;;;1.25;1.00;;;21.30;97.20;;;;;;1731743;28;20513;-67
2022/07/02 08:29:32;;;;;;;2.60;1.20;;;21.30;97.20;;;;;;1732014;28;20215;-67
2022/07/02 08:30:23;;;;;;;2.08;1.10;;;21.30;97.20;;;;;;1732776;28;20200;-67
2022/07/02 08:31:15;;;;;;;1.20;1.10;;;21.30;97.20;;;;;;1732117;28;20200;-68
2022/07/02 08:32:07;;;;;;;1.00;0.90;;;21.40;97.20;;;;;;1732104;28;20196;-67
2022/07/02 08:32:58;;;;;;;3.13;1.10;;;21.40;97.20;;;;;;1732160;28;20282;-68
2022/07/02 08:33:49;;;;;;;1.20;1.10;;;21.30;97.20;;;;;;1731774;28;20227;-68
2022/07/02 08:34:41;;;;;;;2.10;1.07;;;21.30;97.20;;;;;;1732071;28;20291;-67
2022/07/02 08:35:32;;;;;;;1.67;1.00;;;21.30;97.20;;;;;;1731521;28;20199;-68
2022/07/02 08:36:24;;;;;;;1.73;1.13;;;21.30;97.20;;;;;;1731733;28;20291;-69
2022/07/02 08:37:16;;;;;;;2.97;1.30;;;21.40;97.20;;;;;;1731771;28;21075;-68
2022/07/02 08:38:08;;;;;;;1.50;1.40;;;21.40;97.20;;;;;;1731493;28;20211;-68
2022/07/02 08:38:58;;;;;;;1.10;1.00;;;21.30;97.20;;;;;;1731984;28;20200;-70
2022/07/02 08:39:50;;;;;;;1.30;1.10;;;21.30;97.20;;;;;;1733271;28;20287;-68
2022/07/02 08:40:42;;;;;;;1.40;1.27;;;21.30;97.20;;;;;;1732622;28;20203;-68
2022/07/02 08:41:34;;;;;;;1.30;1.10;;;21.30;97.20;;;;;;1732143;28;20196;-68
2022/07/02 08:42:27;;;;;;;1.40;1.20;;;21.40;97.20;;;;;;1731924;28;20254;-69
2022/07/02 08:43:23;;;;;;;1.70;1.08;;;21.40;97.20;;;;;;1732083;28;20196;-68
2022/07/02 08:44:15;;;;;;;1.40;1.20;;;21.40;97.20;;;;;;1731954;28;20196;-68
2022/07/02 08:45:10;;;;;;;3.45;1.35;;;21.50;97.20;;;;;;1732012;28;20204;-69
2022/07/02 08:46:04;;;;;;;1.10;0.93;;;21.50;97.20;;;;;;1732034;28;20203;-69
2022/07/02 08:46:56;;;;;;;1.45;1.10;;;21.50;97.20;;;;;;1731811;28;20686;-69
2022/07/02 08:47:48;;;;;;;1.23;1.13;;;21.60;97.20;;;;;;1731900;28;20722;-68
2022/07/02 08:48:40;;;;;;;1.20;0.90;;;21.60;97.20;;;;;;1731886;28;20224;-69
2022/07/02 08:49:34;;;;;;;1.20;1.08;;;21.60;97.20;;;;;;1732330;28;20620;-69
2022/07/02 08:50:26;;;;;;;1.20;1.10;;;21.70;97.20;;;;;;1731790;28;20204;-69
2022/07/02 08:51:20;;;;;;;2.40;1.30;;;21.70;97.20;;;;;;1731929;28;20249;-68
2022/07/02 08:52:13;;;;;;;1.40;0.85;;;21.70;97.20;;;;;;1731862;28;20196;-69
2022/07/02 08:53:07;;;;;;;2.78;1.00;;;21.80;97.20;;;;;;1731635;28;20200;-68
2022/07/02 08:54:00;;;;;;;3.95;1.10;;;21.80;97.20;;;;;;1731791;28;22087;-68
2022/07/02 08:54:52;;;;;;;1.25;1.00;;;21.80;97.20;;;;;;1731723;28;20581;-68
2022/07/02 08:55:44;;;;;;;2.95;1.35;;;21.90;97.20;;;;;;1731641;28;20207;-69
2022/07/02 08:56:35;;;;;;;1.30;1.20;;;21.90;97.20;;;;;;1731783;28;20599;-67
2022/07/02 08:57:49;;;;;;;1.20;1.10;;;21.90;97.20;;;;;;1732127;28;20851;-68
2022/07/02 08:58:41;;;;;;;5.10;1.50;;;22.00;97.20;;;;;;1731904;28;20789;-69
2022/07/02 08:59:33;;;;;;;2.90;2.70;;;22.00;97.20;;;;;;1732453;28;20564;-68
2022/07/02 09:00:25;;;;;;;4.90;4.50;;;22.00;97.20;;;;;;1731840;28;20192;-69
2022/07/02 09:01:16;;;;;;;2.70;2.50;;;22.00;97.20;;;;;;1731964;28;20211;-68
2022/07/02 09:02:10;;;;;;;2.45;1.50;;;22.10;97.20;;;;;;1731701;28;20211;-69
2022/07/02 09:03:03;;;;;;;1.48;1.20;;;22.10;97.20;;;;;;1732086;28;20226;-69
2022/07/02 09:03:55;;;;;;;2.30;2.10;;;22.10;97.20;;;;;;1731994;28;20211;-69
2022/07/02 09:04:49;;;;;;;2.17;1.50;;;22.10;97.20;;;;;;1731684;28;20207;-69
2022/07/02 09:05:42;;;;;;;1.50;1.40;;;22.10;97.20;;;;;;1731857;28;20202;-69
2022/07/02 09:06:36;;;;;;;2.33;1.40;;;22.10;97.20;;;;;;1731652;28;20316;-70
2022/07/02 09:07:27;;;;;;;1.33;1.00;;;22.20;97.20;;;;;;1731836;28;20595;-69
2022/07/02 09:08:22;;;;;;;2.17;1.00;;;22.20;97.20;;;;;;1731831;28;20211;-69
2022/07/02 09:09:13;;;;;;;1.55;0.90;;;22.20;97.20;;;;;;1732431;28;20451;-69
2022/07/02 09:10:06;;;;;;;1.10;0.83;;;22.20;97.20;;;;;;1731790;28;20192;-69
2022/07/02 09:10:58;;;;;;;1.30;1.20;;;22.20;97.20;;;;;;1731771;28;20454;-68
2022/07/02 09:11:50;;;;;;;1.60;1.27;;;22.20;97.20;;;;;;1731767;28;20184;-68
2022/07/02 09:12:41;;;;;;;1.67;1.58;;;22.30;97.20;;;;;;1732002;28;20211;-68
2022/07/02 09:13:33;;;;;;;1.58;1.20;;;22.30;97.20;;;;;;1732033;28;20191;-69
2022/07/02 09:14:24;;;;;;;1.42;1.15;;;22.30;97.20;;;;;;1731803;28;20338;-69
2022/07/02 09:15:16;;;;;;;5.55;3.17;;;22.30;97.20;;;;;;1731859;28;20192;-68
2022/07/02 09:16:07;;;;;;;1.67;1.42;;;22.40;97.20;;;;;;1731704;28;20218;-68
2022/07/02 09:16:59;;;;;;;1.70;1.40;;;22.40;97.20;;;;;;1731609;28;20290;-70
2022/07/02 09:17:50;;;;;;;3.45;1.20;;;22.40;97.20;;;;;;1731737;28;20195;-70
2022/07/02 09:18:42;;;;;;;0.90;0.77;;;22.40;97.20;;;;;;1732040;28;20295;-69
2022/07/02 09:19:34;;;;;;;1.27;1.10;;;22.50;97.20;;;;;;1731866;28;20203;-68
2022/07/02 09:20:26;;;;;;;2.45;0.90;;;22.50;97.20;;;;;;1731869;28;20633;-68
2022/07/02 09:21:17;;;;;;;2.47;0.90;;;22.50;97.20;;;;;;1731634;28;20232;-68
2022/07/02 09:22:09;;;;;;;1.50;1.00;;;22.50;97.20;;;;;;1731520;28;20200;-69
2022/07/02 09:23:00;;;;;;;2.25;1.00;;;22.60;97.20;;;;;;1731816;28;20211;-69
2022/07/02 09:23:53;;;;;;;1.00;0.80;;;22.60;97.20;;;;;;1731695;28;20200;-69
2022/07/02 09:24:44;;;;;;;1.30;1.00;;;22.60;97.20;;;;;;1731712;28;20459;-69
2022/07/02 09:25:36;;;;;;;0.90;0.70;;;22.60;97.20;;;;;;1732071;28;20286;-68
2022/07/02 09:26:27;;;;;;;1.33;1.00;;;22.60;97.20;;;;;;1731608;28;20230;-68
2022/07/02 09:27:18;;;;;;;2.50;1.17;;;22.60;97.20;;;;;;1731957;28;20718;-69
2022/07/02 09:28:13;;;;;;;2.25;1.02;;;22.60;97.20;;;;;;1733520;28;20446;-67
2022/07/02 09:29:05;;;;;;;1.00;0.80;;;22.60;97.20;;;;;;1733165;28;20196;-69
2022/07/02 09:29:56;;;;;;;1.08;0.90;;;22.60;97.20;;;;;;1733358;28;20198;-68
2022/07/02 09:30:48;;;;;;;1.90;0.87;;;22.70;97.20;;;;;;1735409;28;20238;-70
2022/07/02 09:31:48;;;;;;;0.82;0.70;;;22.70;97.20;;;;;;1733140;28;20954;-68
2022/07/02 09:32:41;;;;;;;1.15;0.90;;;22.70;97.20;;;;;;1733153;28;20744;-68
2022/07/02 09:33:32;;;;;;;2.28;0.95;;;22.70;97.20;;;;;;1733028;28;20196;-68
2022/07/02 09:34:25;;;;;;;1.57;0.90;;;22.70;97.20;;;;;;1733320;28;20274;-68